createdAt,value
2019-01-09T00:00:57.804Z,97.90
2019-01-09T00:03:26.870Z,97.50
2019-01-09T00:08:31.785Z,98.47
2019-01-09T00:11:00.858Z,97.05
2019-01-09T00:13:29.892Z,97.73
2019-01-09T00:15:59.167Z,97.04
2019-01-09T00:18:28.467Z,96.75
2019-01-09T00:20:57.684Z,96.84
2019-01-09T00:23:26.896Z,97.59
2019-01-09T00:25:57.981Z,99.62
2019-01-09T00:28:27.073Z,100.00
2019-01-09T00:30:56.185Z,100.00
2019-01-09T00:33:29.795Z,100.00
2019-01-09T00:35:58.858Z,99.22
2019-01-09T00:38:28.003Z,99.30
2019-01-09T00:40:58.095Z,99.12
2019-01-09T00:43:27.135Z,98.17
2019-01-09T00:45:56.182Z,98.27
2019-01-09T00:48:25.363Z,98.31
2019-01-09T00:50:54.402Z,97.76
2019-01-09T00:53:23.439Z,97.92
2019-01-09T00:55:52.491Z,98.05
2019-01-09T00:58:23.058Z,97.32
2019-01-09T01:00:53.311Z,97.70
2019-01-09T01:09:17.118Z,97.77
2019-01-09T01:17:37.518Z,98.22
2019-01-09T01:20:08.197Z,97.63
2019-01-09T01:22:54.200Z,98.37
2019-01-09T01:25:29.701Z,99.10
2019-01-09T01:28:11.121Z,98.99
2019-01-09T01:30:50.003Z,98.46
2019-01-09T01:33:28.413Z,98.75
2019-01-09T01:36:06.190Z,98.30
2019-01-09T01:38:38.774Z,97.98
2019-01-09T01:43:59.458Z,97.90
2019-01-09T01:57:40.083Z,98.50
2019-01-09T02:05:43.558Z,97.87
2019-01-09T02:08:23.372Z,97.64
2019-01-09T02:11:16.744Z,97.84
2019-01-09T02:14:06.284Z,97.19
2019-01-09T02:19:20.902Z,97.14
2019-01-09T02:24:53.181Z,97.12
2019-01-09T02:27:27.461Z,97.96
2019-01-09T02:33:01.388Z,99.01
2019-01-09T02:35:31.358Z,98.89
2019-01-09T02:38:00.432Z,99.64
2019-01-09T02:40:29.463Z,99.72
2019-01-09T02:42:58.555Z,99.97
2019-01-09T02:45:29.878Z,99.53
2019-01-09T02:47:58.925Z,98.30
2019-01-09T02:50:27.973Z,98.23
2019-01-09T02:52:57.959Z,96.87
2019-01-09T02:55:27.044Z,96.36
2019-01-09T03:00:31.920Z,97.91
2019-01-09T03:03:00.974Z,98.94
2019-01-09T03:05:30.009Z,99.67
2019-01-09T03:07:59.077Z,100.00
2019-01-09T03:19:19.666Z,100.00
2019-01-09T03:21:48.750Z,100.00
2019-01-09T03:24:17.791Z,100.00
2019-01-09T03:26:46.852Z,100.00
2019-01-09T03:29:15.922Z,100.00
2019-01-09T03:31:44.974Z,100.00
2019-01-09T03:34:22.022Z,100.00
2019-01-09T03:36:51.969Z,100.00
2019-01-09T03:39:21.048Z,100.00
2019-01-09T03:41:50.116Z,100.00
2019-01-09T03:46:54.885Z,100.00
2019-01-09T03:49:23.997Z,100.00
2019-01-09T03:51:53.057Z,100.00
2019-01-09T03:54:22.102Z,100.00
2019-01-09T03:56:51.147Z,100.00
2019-01-09T03:59:20.198Z,100.00
2019-01-09T04:01:49.257Z,100.00
2019-01-09T04:06:53.583Z,100.00
2019-01-09T04:09:23.150Z,100.00
2019-01-09T04:11:51.691Z,100.00
2019-01-09T04:14:20.341Z,100.00
2019-01-09T04:16:48.846Z,100.00
2019-01-09T04:19:17.616Z,100.00
2019-01-09T04:21:46.166Z,100.00
2019-01-09T04:24:15.347Z,100.00
2019-01-09T04:26:44.789Z,100.00
2019-01-09T04:29:13.378Z,100.00
2019-01-09T04:31:41.895Z,100.00
2019-01-09T04:34:10.454Z,100.00
2019-01-09T04:36:38.990Z,100.00
2019-01-09T04:39:07.626Z,100.00
2019-01-09T04:41:36.131Z,100.00
2019-01-09T04:44:04.780Z,100.00
2019-01-09T04:46:33.420Z,100.00
2019-01-09T04:49:01.874Z,100.00
2019-01-09T04:51:30.490Z,100.00
2019-01-09T04:53:59.434Z,100.00
2019-01-09T04:56:32.952Z,100.00
2019-01-09T04:59:01.517Z,100.00
2019-01-09T05:01:30.948Z,100.00
2019-01-09T05:03:59.490Z,100.00
2019-01-09T05:06:28.043Z,100.00
2019-01-09T05:08:56.575Z,100.00
2019-01-09T05:11:25.102Z,100.00
2019-01-09T05:13:54.542Z,100.00
2019-01-09T05:16:23.094Z,100.00
2019-01-09T05:18:52.533Z,100.00
2019-01-09T05:21:21.091Z,100.00
2019-01-09T05:23:49.615Z,100.00
2019-01-09T05:26:19.053Z,100.00
2019-01-09T05:28:48.527Z,100.00
2019-01-09T05:31:17.088Z,100.00
2019-01-09T05:33:55.026Z,100.00
2019-01-09T05:36:23.723Z,100.00
2019-01-09T05:38:52.301Z,100.00
2019-01-09T05:41:20.862Z,100.00
2019-01-09T05:43:50.432Z,100.00
2019-01-09T05:46:18.989Z,100.00
2019-01-09T05:48:47.547Z,100.00
2019-01-09T05:51:16.073Z,100.00
2019-01-09T05:53:48.706Z,100.00
2019-01-09T05:56:18.198Z,100.00
2019-01-09T05:58:46.772Z,100.00
2019-01-09T06:01:15.347Z,100.00
2019-01-09T06:03:43.881Z,100.00
2019-01-09T06:06:12.405Z,100.00
2019-01-09T06:08:40.929Z,100.00
2019-01-09T06:11:09.508Z,100.00
2019-01-09T06:13:40.040Z,100.00
2019-01-09T06:16:08.536Z,100.00
2019-01-09T06:18:37.127Z,100.00
2019-01-09T06:21:06.237Z,100.00
2019-01-09T06:23:35.339Z,100.00
2019-01-09T06:26:04.420Z,100.00
2019-01-09T06:28:32.945Z,100.00
2019-01-09T06:31:02.565Z,100.00
2019-01-09T06:33:41.159Z,100.00
2019-01-09T06:36:09.661Z,100.00
2019-01-09T06:38:38.197Z,100.00
2019-01-09T06:41:06.738Z,100.00
2019-01-09T06:43:35.265Z,100.00
2019-01-09T06:46:03.817Z,100.00
2019-01-09T06:48:32.328Z,100.00
2019-01-09T06:51:00.886Z,100.00
2019-01-09T06:53:29.437Z,100.00
2019-01-09T06:55:57.948Z,100.00
2019-01-09T06:58:26.706Z,100.00
2019-01-09T07:00:55.217Z,100.00
2019-01-09T07:03:23.776Z,100.00
2019-01-09T07:05:52.457Z,100.00
2019-01-09T07:08:20.990Z,100.00
2019-01-09T07:10:49.531Z,100.00
2019-01-09T07:13:18.063Z,100.00
2019-01-09T07:15:46.576Z,100.00
2019-01-09T07:18:15.125Z,100.00
2019-01-09T07:20:44.584Z,100.00
2019-01-09T07:23:13.125Z,100.00
2019-01-09T07:25:41.642Z,100.00
2019-01-09T07:28:10.203Z,100.00
2019-01-09T07:30:38.880Z,100.00
2019-01-09T07:33:07.391Z,100.00
2019-01-09T07:35:35.914Z,100.00
2019-01-09T07:38:04.536Z,100.00
2019-01-09T07:40:33.036Z,100.00
2019-01-09T07:43:01.557Z,100.00
2019-01-09T07:45:30.091Z,100.00
2019-01-09T07:47:58.605Z,100.00
2019-01-09T07:50:27.138Z,100.00
2019-01-09T07:52:55.767Z,100.00
2019-01-09T07:55:24.268Z,100.00
2019-01-09T07:57:52.792Z,100.00
2019-01-09T08:00:21.334Z,100.00
2019-01-09T08:02:49.854Z,100.00
2019-01-09T08:05:18.689Z,100.00
2019-01-09T08:07:53.860Z,100.00
2019-01-09T08:10:16.946Z,100.00
2019-01-09T08:12:45.506Z,100.00
2019-01-09T08:15:14.064Z,100.00
2019-01-09T08:17:42.580Z,99.75
2019-01-09T08:20:11.102Z,100.00
2019-01-09T08:22:39.641Z,99.60
2019-01-09T08:25:08.169Z,99.75
2019-01-09T08:27:36.725Z,99.53
2019-01-09T08:30:05.219Z,99.69
2019-01-09T08:32:33.745Z,99.50
2019-01-09T08:35:02.286Z,98.90
2019-01-09T08:37:31.081Z,98.81
2019-01-09T08:39:59.601Z,97.94
2019-01-09T08:42:28.124Z,97.85
2019-01-09T08:44:56.643Z,97.56
2019-01-09T08:47:25.185Z,96.78
2019-01-09T08:49:53.699Z,96.50
2019-01-09T08:52:22.238Z,96.16
2019-01-09T08:54:51.718Z,95.75
2019-01-09T08:57:20.255Z,95.43
2019-01-09T08:59:49.695Z,95.15
2019-01-09T09:02:18.211Z,95.12
2019-01-09T09:04:46.733Z,95.33
2019-01-09T09:07:20.653Z,94.72
2019-01-09T09:09:49.178Z,94.78
2019-01-09T09:12:17.711Z,94.97
2019-01-09T09:14:46.252Z,95.42
2019-01-09T09:17:14.769Z,96.04
2019-01-09T09:19:43.293Z,96.66
2019-01-09T09:22:12.733Z,97.72
2019-01-09T09:24:41.258Z,97.99
2019-01-09T09:27:09.832Z,97.75
2019-01-09T09:29:38.326Z,98.15
2019-01-09T09:32:06.872Z,97.78
2019-01-09T09:34:35.383Z,96.90
2019-01-09T09:37:03.912Z,97.09
2019-01-09T09:39:32.440Z,96.78
2019-01-09T09:42:00.963Z,96.38
2019-01-09T09:44:29.514Z,95.69
2019-01-09T09:46:58.041Z,96.59
2019-01-09T09:49:26.552Z,96.77
2019-01-09T09:51:55.073Z,95.71
2019-01-09T09:54:23.623Z,95.93
2019-01-09T09:56:52.149Z,95.90
2019-01-09T09:59:21.007Z,95.46
2019-01-09T10:01:49.510Z,95.43
2019-01-09T10:04:18.076Z,95.21
2019-01-09T10:06:46.590Z,94.06
2019-01-09T10:09:15.207Z,94.50
2019-01-09T10:11:43.730Z,95.09
2019-01-09T10:14:12.262Z,95.06
2019-01-09T10:16:40.782Z,95.82
2019-01-09T10:19:11.190Z,96.71
2019-01-09T10:21:39.990Z,97.41
2019-01-09T10:24:08.513Z,97.66
2019-01-09T10:26:37.028Z,97.92
2019-01-09T10:29:05.558Z,98.16
2019-01-09T10:31:34.078Z,99.06
2019-01-09T10:34:02.599Z,99.61
2019-01-09T10:36:31.118Z,99.24
2019-01-09T10:38:59.639Z,99.16
2019-01-09T10:41:28.146Z,99.61
2019-01-09T10:43:56.685Z,99.46
2019-01-09T10:46:25.210Z,98.47
2019-01-09T10:48:53.733Z,98.13
2019-01-09T10:51:22.249Z,97.96
2019-01-09T10:53:50.764Z,98.08
2019-01-09T10:56:19.302Z,98.00
2019-01-09T10:58:47.806Z,98.64
2019-01-09T11:01:16.333Z,98.31
2019-01-09T11:03:44.841Z,98.73
2019-01-09T11:06:14.610Z,98.30
2019-01-09T11:08:47.131Z,97.83
2019-01-09T11:11:11.566Z,97.29
2019-01-09T11:13:40.061Z,97.45
2019-01-09T11:16:08.601Z,97.52
2019-01-09T11:18:37.117Z,97.87
2019-01-09T11:21:05.663Z,97.27
2019-01-09T11:23:34.189Z,96.92
2019-01-09T11:26:03.690Z,95.42
2019-01-09T11:28:32.194Z,94.60
2019-01-09T11:31:00.798Z,95.62
2019-01-09T11:33:29.294Z,95.85
2019-01-09T11:35:57.811Z,95.02
2019-01-09T11:38:26.347Z,94.87
2019-01-09T11:40:54.867Z,94.27
2019-01-09T11:43:23.386Z,94.05
2019-01-09T11:45:51.873Z,93.94
2019-01-09T11:48:20.419Z,95.39
2019-01-09T11:50:48.949Z,95.13
2019-01-09T11:53:17.459Z,96.28
2019-01-09T11:55:46.000Z,95.66
2019-01-09T11:58:14.514Z,95.65
2019-01-09T12:00:43.029Z,95.96
2019-01-09T12:03:11.578Z,96.65
2019-01-09T12:05:40.104Z,96.79
2019-01-09T12:08:08.668Z,96.27
2019-01-09T12:10:37.246Z,96.15
2019-01-09T12:13:06.498Z,96.14
2019-01-09T12:15:35.033Z,96.15
2019-01-09T12:18:03.576Z,95.61
2019-01-09T12:20:32.098Z,95.57
2019-01-09T12:23:00.622Z,95.15
2019-01-09T12:25:29.132Z,94.52
2019-01-09T12:27:57.637Z,94.06
2019-01-09T12:30:26.169Z,94.15
2019-01-09T12:32:54.680Z,93.81
2019-01-09T12:35:30.233Z,93.84
2019-01-09T12:37:58.734Z,94.78
2019-01-09T12:40:27.300Z,95.34
2019-01-09T12:42:55.843Z,96.05
2019-01-09T12:45:24.425Z,96.91
2019-01-09T12:47:52.901Z,96.70
2019-01-09T12:50:21.443Z,95.75
2019-01-09T12:52:49.967Z,94.86
2019-01-09T12:55:18.481Z,95.30
2019-01-09T12:57:47.034Z,96.01
2019-01-09T13:00:18.882Z,96.53
2019-01-09T13:02:47.405Z,95.78
2019-01-09T13:05:15.940Z,96.38
2019-01-09T13:07:44.514Z,96.67
2019-01-09T13:10:13.027Z,97.42
2019-01-09T13:12:41.575Z,98.05
2019-01-09T13:15:10.114Z,97.32
2019-01-09T13:17:38.661Z,96.88
2019-01-09T13:20:07.928Z,96.97
2019-01-09T13:22:36.455Z,96.84
2019-01-09T13:25:04.973Z,96.99
2019-01-09T13:27:33.502Z,97.26
2019-01-09T13:30:02.044Z,97.69
2019-01-09T13:32:30.596Z,98.06
2019-01-09T13:34:59.132Z,98.30
2019-01-09T13:37:28.690Z,97.75
2019-01-09T13:39:57.193Z,98.44
2019-01-09T13:42:25.744Z,98.56
2019-01-09T13:44:54.262Z,98.93
2019-01-09T13:47:25.515Z,99.19
2019-01-09T13:49:54.497Z,99.70
2019-01-09T13:52:23.036Z,100.00
2019-01-09T13:54:51.560Z,99.38
2019-01-09T13:57:20.074Z,98.57
2019-01-09T13:59:48.634Z,98.76
2019-01-09T14:02:17.157Z,99.36
2019-01-09T14:04:45.677Z,99.22
2019-01-09T14:07:14.198Z,99.47
2019-01-09T14:09:42.722Z,99.82
2019-01-09T14:12:11.335Z,99.62
2019-01-09T14:14:39.826Z,99.27
2019-01-09T14:17:08.360Z,99.13
2019-01-09T14:19:36.884Z,98.61
2019-01-09T14:22:05.396Z,99.12
2019-01-09T14:24:34.866Z,99.85
2019-01-09T14:27:03.375Z,99.90
2019-01-09T14:29:37.077Z,99.96
2019-01-09T14:32:05.604Z,100.00
2019-01-09T14:34:34.145Z,98.79
2019-01-09T14:37:02.677Z,98.83
2019-01-09T14:39:31.219Z,98.63
2019-01-09T14:41:59.781Z,98.96
2019-01-09T14:44:28.326Z,98.98
2019-01-09T14:46:56.906Z,98.90
2019-01-09T14:49:25.441Z,99.59
2019-01-09T14:51:54.002Z,99.74
2019-01-09T14:54:22.859Z,100.00
2019-01-09T14:56:51.565Z,99.60
2019-01-09T14:59:20.086Z,100.00
2019-01-09T15:01:48.634Z,100.00
2019-01-09T15:04:17.664Z,100.00
2019-01-09T15:06:45.804Z,100.00
2019-01-09T15:09:14.325Z,100.00
2019-01-09T15:11:42.920Z,100.00
2019-01-09T15:14:11.473Z,100.00
2019-01-09T15:16:40.008Z,100.00
2019-01-09T15:19:08.547Z,100.00
2019-01-09T15:21:37.067Z,100.00
2019-01-09T15:24:08.549Z,100.00
2019-01-09T15:26:34.136Z,100.00
2019-01-09T15:29:02.685Z,100.00
2019-01-09T15:31:31.205Z,100.00
2019-01-09T15:33:59.742Z,100.00
2019-01-09T15:36:28.284Z,100.00
2019-01-09T15:38:56.818Z,100.00
2019-01-09T15:41:25.373Z,100.00
2019-01-09T15:43:53.915Z,100.00
2019-01-09T15:46:24.026Z,100.00
2019-01-09T15:48:51.121Z,100.00
2019-01-09T15:51:19.753Z,100.00
2019-01-09T15:53:48.286Z,100.00
2019-01-09T15:56:17.792Z,100.00
2019-01-09T15:58:46.329Z,100.00
2019-01-09T16:01:14.882Z,100.00
2019-01-09T16:03:43.422Z,100.00
2019-01-09T16:06:11.958Z,100.00
2019-01-09T16:08:41.158Z,100.00
2019-01-09T16:11:10.687Z,100.00
2019-01-09T16:13:39.378Z,100.00
2019-01-09T16:16:07.912Z,100.00
2019-01-09T16:18:36.434Z,100.00
2019-01-09T16:21:10.109Z,100.00
2019-01-09T16:23:39.015Z,100.00
2019-01-09T16:26:07.575Z,100.00
2019-01-09T16:28:36.105Z,100.00
2019-01-09T16:31:04.646Z,100.00
2019-01-09T16:33:33.198Z,100.00
2019-01-09T16:36:01.867Z,100.00
2019-01-09T16:38:30.414Z,100.00
2019-01-09T16:40:58.947Z,100.00
2019-01-09T16:43:27.502Z,100.00
2019-01-09T16:45:56.028Z,100.00
2019-01-09T16:48:24.552Z,100.00
2019-01-09T16:50:53.110Z,100.00
2019-01-09T16:53:21.657Z,100.00
2019-01-09T16:55:50.195Z,100.00
2019-01-09T16:58:18.749Z,100.00
2019-01-09T17:00:47.293Z,100.00
2019-01-09T17:03:15.836Z,100.00
2019-01-09T17:05:44.354Z,100.00
2019-01-09T17:08:12.885Z,100.00
2019-01-09T17:10:41.441Z,100.00
2019-01-09T17:13:10.963Z,100.00
2019-01-09T17:15:39.580Z,100.00
2019-01-09T17:18:08.023Z,100.00
2019-01-09T17:20:36.547Z,100.00
2019-01-09T17:23:05.093Z,100.00
2019-01-09T17:25:33.615Z,100.00
2019-01-09T17:28:05.819Z,100.00
2019-01-09T17:30:44.375Z,100.00
2019-01-09T17:33:23.211Z,100.00
2019-01-09T17:35:51.732Z,100.00
2019-01-09T17:38:32.704Z,100.00
2019-01-09T17:41:03.159Z,100.00
2019-01-09T17:43:31.730Z,100.00
2019-01-09T17:46:00.261Z,100.00
2019-01-09T17:48:28.786Z,100.00
2019-01-09T17:50:58.257Z,100.00
2019-01-09T17:53:26.778Z,100.00
2019-01-09T17:56:05.972Z,100.00
2019-01-09T17:58:35.957Z,100.00
2019-01-09T18:01:04.547Z,100.00
2019-01-09T18:03:33.088Z,100.00
2019-01-09T18:06:01.612Z,100.00
2019-01-09T18:08:30.152Z,100.00
2019-01-09T18:10:59.760Z,100.00
2019-01-09T18:13:28.323Z,100.00
2019-01-09T18:16:02.665Z,100.00
2019-01-09T18:18:31.247Z,100.00
2019-01-09T18:20:59.827Z,100.00
2019-01-09T18:23:28.367Z,100.00
2019-01-09T18:25:56.982Z,100.00
2019-01-09T18:28:25.534Z,100.00
2019-01-09T18:31:03.325Z,100.00
2019-01-09T18:33:28.870Z,100.00
2019-01-09T18:36:32.197Z,100.00
2019-01-09T18:39:08.702Z,100.00
2019-01-09T18:44:46.440Z,100.00
2019-01-09T18:47:26.566Z,100.00
2019-01-09T18:52:53.880Z,100.00
2019-01-09T18:55:22.426Z,100.00
2019-01-09T18:57:50.970Z,100.00
2019-01-09T19:00:19.490Z,100.00
2019-01-09T19:02:48.059Z,100.00
2019-01-09T19:05:23.233Z,100.00
2019-01-09T19:07:51.777Z,100.00
2019-01-09T19:10:20.322Z,100.00
2019-01-09T19:12:50.595Z,100.00
2019-01-09T19:15:17.406Z,100.00
2019-01-09T19:17:45.961Z,100.00
2019-01-09T19:20:14.491Z,100.00
2019-01-09T19:22:43.090Z,100.00
2019-01-09T19:25:12.234Z,100.00
2019-01-09T19:27:40.786Z,100.00
2019-01-09T19:30:12.803Z,100.00
2019-01-09T19:32:41.363Z,100.00
2019-01-09T19:35:10.056Z,100.00
2019-01-09T19:37:39.586Z,100.00
2019-01-09T19:40:08.129Z,100.00
2019-01-09T19:42:36.726Z,100.00
2019-01-09T19:45:06.246Z,100.00
2019-01-09T19:47:35.771Z,100.00
2019-01-09T19:50:09.178Z,100.00
2019-01-09T19:52:43.470Z,100.00
2019-01-09T19:55:12.060Z,100.00
2019-01-09T19:57:40.601Z,100.00
2019-01-09T20:00:13.845Z,100.00
2019-01-09T20:02:46.810Z,100.00
2019-01-09T20:05:17.315Z,100.00
2019-01-09T20:07:46.252Z,100.00
2019-01-09T20:10:15.743Z,100.00
2019-01-09T20:12:44.282Z,100.00
2019-01-09T20:15:12.883Z,100.00
2019-01-09T20:17:41.640Z,100.00
2019-01-09T20:20:10.919Z,100.00
2019-01-09T20:22:40.352Z,100.00
2019-01-09T20:25:09.737Z,100.00
2019-01-09T20:27:39.174Z,100.00
2019-01-09T20:30:11.337Z,100.00
2019-01-09T20:32:39.880Z,100.00
2019-01-09T20:35:10.621Z,100.00
2019-01-09T20:37:39.267Z,100.00
2019-01-09T20:40:08.017Z,100.00
2019-01-09T20:42:36.651Z,100.00
2019-01-09T20:45:05.400Z,100.00
2019-01-09T20:47:34.096Z,100.00
2019-01-09T20:50:02.651Z,100.00
2019-01-09T20:52:31.495Z,100.00
2019-01-09T20:55:00.262Z,100.00
2019-01-09T20:57:28.788Z,100.00
2019-01-09T20:59:58.615Z,100.00
2019-01-09T21:02:29.273Z,100.00
2019-01-09T21:04:57.920Z,100.00
2019-01-09T21:07:27.290Z,100.00
2019-01-09T21:09:55.978Z,100.00
2019-01-09T21:12:24.565Z,100.00
2019-01-09T21:14:55.031Z,100.00
2019-01-09T21:17:23.656Z,100.00
2019-01-09T21:19:52.234Z,100.00
2019-01-09T21:22:21.715Z,100.00
2019-01-09T21:24:50.393Z,100.00
2019-01-09T21:27:18.905Z,100.00
2019-01-09T21:29:47.446Z,100.00
2019-01-09T21:32:16.006Z,100.00
2019-01-09T21:34:46.494Z,100.00
2019-01-09T21:37:15.027Z,100.00
2019-01-09T21:39:43.714Z,100.00
2019-01-09T21:42:12.323Z,100.00
2019-01-09T21:44:43.053Z,100.00
2019-01-09T21:47:11.907Z,100.00
2019-01-09T21:49:40.599Z,100.00
2019-01-09T21:52:09.177Z,100.00
2019-01-09T21:54:37.765Z,100.00
2019-01-09T21:57:06.426Z,100.00
2019-01-09T21:59:35.098Z,100.00
2019-01-09T22:02:03.656Z,100.00
2019-01-09T22:04:32.170Z,100.00
2019-01-09T22:07:00.979Z,100.00
2019-01-09T22:09:29.521Z,100.00
2019-01-09T22:12:02.636Z,100.00
2019-01-09T22:14:26.632Z,100.00
2019-01-09T22:16:55.242Z,100.00
2019-01-09T22:19:23.773Z,100.00
2019-01-09T22:21:52.308Z,100.00
2019-01-09T22:24:20.847Z,100.00
2019-01-09T22:26:56.899Z,100.00
2019-01-09T22:29:25.848Z,100.00
2019-01-09T22:31:54.384Z,100.00
2019-01-09T22:34:24.883Z,100.00
2019-01-09T22:36:53.421Z,100.00
2019-01-09T22:39:23.914Z,100.00
2019-01-09T22:41:52.460Z,100.00
2019-01-09T22:44:21.002Z,100.00
2019-01-09T22:46:50.162Z,100.00
2019-01-09T22:49:18.704Z,100.00
2019-01-09T22:51:47.218Z,100.00
2019-01-09T22:54:15.775Z,100.00
2019-01-09T22:56:44.410Z,100.00
2019-01-09T22:59:12.863Z,100.00
2019-01-09T23:01:41.396Z,100.00
2019-01-09T23:04:09.945Z,100.00
2019-01-09T23:06:38.494Z,100.00
2019-01-09T23:09:07.042Z,100.00
2019-01-09T23:11:35.569Z,100.00
2019-01-09T23:14:04.126Z,100.00
2019-01-09T23:16:33.978Z,100.00
2019-01-09T23:19:02.768Z,100.00
2019-01-09T23:21:33.169Z,100.00
2019-01-09T23:23:59.874Z,100.00
2019-01-09T23:26:28.426Z,100.00
2019-01-09T23:28:56.960Z,100.00
2019-01-09T23:31:26.525Z,100.00
2019-01-09T23:33:55.967Z,100.00
2019-01-09T23:36:24.498Z,100.00
2019-01-09T23:38:53.051Z,100.00
2019-01-09T23:41:21.600Z,100.00
2019-01-09T23:43:50.122Z,100.00
2019-01-09T23:46:18.671Z,100.00
2019-01-09T23:48:47.234Z,100.00
2019-01-09T23:51:15.821Z,100.00
2019-01-09T23:53:44.349Z,100.00
2019-01-09T23:56:12.891Z,100.00
2019-01-09T23:58:41.459Z,100.00
